Time;durP1;ratioP1;P1;durP2;ratioP2;P2;SDS_P1;SDS_P2;PMS_P1;PMS_P2;Temp;Humidity;BMP_temperature;BMP_pressure;BME280_temperature;BME280_humidity;BME280_pressure;Samples;Min_cycle;Max_cycle;Signal;HPM_P1;HPM_P2
2022/01/06 00:01:30;;;;;;;3.63;2.22;;;;;;;;;;6275864;22;19999;-65
2022/01/06 00:03:56;;;;;;;4.45;2.13;;;;;;;;;;6272998;22;20054;-66
2022/01/06 00:06:24;;;;;;;2.42;2.17;;;;;;;;;;6271937;22;20311;-65
2022/01/06 00:08:53;;;;;;;5.32;2.55;;;;;;;;;;6276270;22;19999;-66
2022/01/06 00:11:19;;;;;;;4.35;2.22;;;;;;;;;;6275369;22;20014;-65
2022/01/06 00:16:29;;;;;;;5.00;2.40;;;;;;;;;;6272291;22;20044;-66
2022/01/06 00:24:17;;;;;;;3.85;2.05;;;;;;;;;;6276558;22;20022;-65
2022/01/06 00:26:43;;;;;;;4.88;2.10;;;;;;;;;;6271848;22;20057;-66
2022/01/06 00:29:09;;;;;;;6.53;2.30;;;;;;;;;;6273014;22;20000;-66
2022/01/06 00:31:36;;;;;;;4.90;2.75;;;;;;;;;;6271973;22;20002;-66
2022/01/06 00:34:03;;;;;;;6.38;2.50;;;;;;;;;;6271408;22;20460;-66
2022/01/06 00:36:30;;;;;;;6.53;2.17;;;;;;;;;;6273973;22;20427;-64
2022/01/06 00:38:57;;;;;;;4.28;2.40;;;;;;;;;;6272311;22;20027;-66
2022/01/06 00:41:23;;;;;;;5.60;2.80;;;;;;;;;;6271610;22;20046;-64
2022/01/06 00:43:49;;;;;;;4.65;2.60;;;;;;;;;;6271421;22;20000;-65
2022/01/06 00:46:15;;;;;;;5.93;2.38;;;;;;;;;;6270710;22;20189;-65
2022/01/06 00:48:42;;;;;;;5.03;2.30;;;;;;;;;;6272178;22;20008;-66
2022/01/06 00:51:09;;;;;;;4.13;2.35;;;;;;;;;;6270467;22;20091;-66
2022/01/06 00:53:35;;;;;;;3.05;2.40;;;;;;;;;;6273007;22;20014;-66
2022/01/06 00:56:01;;;;;;;3.47;2.28;;;;;;;;;;6270480;22;20000;-65
2022/01/06 00:58:27;;;;;;;4.40;2.42;;;;;;;;;;6271089;22;20011;-66
2022/01/06 01:00:53;;;;;;;4.45;2.53;;;;;;;;;;6271272;22;20004;-65
2022/01/06 01:03:21;;;;;;;5.95;3.03;;;;;;;;;;6272222;22;20031;-65
2022/01/06 01:05:48;;;;;;;8.30;3.40;;;;;;;;;;6272472;22;20004;-66
2022/01/06 01:08:15;;;;;;;7.05;3.10;;;;;;;;;;6271664;22;20014;-65
2022/01/06 01:10:41;;;;;;;5.10;3.30;;;;;;;;;;6272492;22;20073;-66
2022/01/06 01:13:12;;;;;;;5.20;2.72;;;;;;;;;;6272011;22;20377;-66
2022/01/06 01:15:49;;;;;;;6.25;3.92;;;;;;;;;;6272061;22;19996;-66
2022/01/06 01:18:19;;;;;;;12.70;6.47;;;;;;;;;;6270878;22;20034;-66
2022/01/06 01:20:45;;;;;;;7.97;4.50;;;;;;;;;;6272220;22;20046;-65
2022/01/06 01:23:11;;;;;;;9.23;4.57;;;;;;;;;;6271797;22;20016;-65
2022/01/06 01:25:37;;;;;;;9.88;4.60;;;;;;;;;;6273351;22;20054;-66
2022/01/06 01:28:04;;;;;;;9.98;3.47;;;;;;;;;;6271077;22;20003;-67
2022/01/06 01:30:31;;;;;;;10.77;4.75;;;;;;;;;;6270677;22;20000;-66
2022/01/06 01:32:59;;;;;;;8.73;6.03;;;;;;;;;;6271301;22;20000;-64
2022/01/06 01:35:31;;;;;;;8.77;4.43;;;;;;;;;;6271187;22;20518;-65
2022/01/06 01:37:57;;;;;;;7.00;4.35;;;;;;;;;;6271636;22;20075;-66
2022/01/06 01:40:23;;;;;;;9.88;4.65;;;;;;;;;;6271420;22;20007;-67
2022/01/06 01:42:49;;;;;;;6.90;3.50;;;;;;;;;;6272036;22;20071;-67
2022/01/06 01:45:16;;;;;;;5.25;3.13;;;;;;;;;;6273151;22;20006;-63
2022/01/06 01:47:45;;;;;;;5.72;3.00;;;;;;;;;;6273615;22;20007;-67
2022/01/06 01:50:17;;;;;;;6.43;3.05;;;;;;;;;;6274757;22;20011;-68
2022/01/06 01:52:45;;;;;;;10.68;3.47;;;;;;;;;;6272530;22;20000;-68
2022/01/06 01:55:12;;;;;;;8.65;4.55;;;;;;;;;;6275395;22;20030;-67
2022/01/06 01:57:38;;;;;;;4.85;2.15;;;;;;;;;;6272085;22;20003;-66
2022/01/06 02:00:06;;;;;;;3.40;2.30;;;;;;;;;;6272997;22;19995;-66
2022/01/06 02:02:32;;;;;;;3.20;2.25;;;;;;;;;;6271394;22;20059;-66
2022/01/06 02:04:59;;;;;;;3.40;1.90;;;;;;;;;;6272398;22;20087;-66
2022/01/06 02:07:25;;;;;;;2.67;1.50;;;;;;;;;;6271806;22;19996;-65
2022/01/06 02:09:51;;;;;;;1.60;1.50;;;;;;;;;;6272257;22;20070;-65
2022/01/06 02:12:30;;;;;;;1.48;1.38;;;;;;;;;;6272827;22;20011;-65
2022/01/06 02:14:57;;;;;;;2.70;1.60;;;;;;;;;;6273881;22;20015;-66
2022/01/06 02:17:23;;;;;;;4.22;2.03;;;;;;;;;;6273202;22;20061;-65
2022/01/06 02:19:54;;;;;;;1.50;1.40;;;;;;;;;;6272886;22;20327;-66
2022/01/06 02:22:20;;;;;;;2.35;1.27;;;;;;;;;;6273973;22;20000;-65
2022/01/06 02:24:46;;;;;;;2.58;1.40;;;;;;;;;;6273642;22;20350;-66
2022/01/06 02:27:13;;;;;;;2.28;1.60;;;;;;;;;;6272584;22;20007;-67
2022/01/06 02:29:39;;;;;;;2.47;2.10;;;;;;;;;;6272930;22;20011;-66
2022/01/06 02:32:09;;;;;;;3.28;1.58;;;;;;;;;;6273351;22;20369;-67
2022/01/06 02:34:35;;;;;;;2.45;1.63;;;;;;;;;;6273009;22;20015;-66
2022/01/06 02:37:02;;;;;;;1.67;1.55;;;;;;;;;;6273773;22;20007;-63
2022/01/06 02:39:28;;;;;;;2.55;1.67;;;;;;;;;;6273285;22;20012;-66
2022/01/06 02:41:54;;;;;;;4.45;1.67;;;;;;;;;;6273461;22;20025;-64
2022/01/06 02:44:23;;;;;;;4.07;1.67;;;;;;;;;;6272559;22;20077;-65
2022/01/06 02:46:49;;;;;;;2.72;1.60;;;;;;;;;;6273159;22;19996;-65
2022/01/06 02:49:15;;;;;;;1.60;1.50;;;;;;;;;;6272060;22;20433;-67
2022/01/06 02:51:42;;;;;;;6.88;2.47;;;;;;;;;;6273178;22;20003;-65
2022/01/06 02:54:09;;;;;;;3.47;2.00;;;;;;;;;;6272786;22;20019;-65
2022/01/06 02:56:37;;;;;;;1.83;1.42;;;;;;;;;;6273056;22;20041;-66
2022/01/06 02:59:03;;;;;;;5.88;1.90;;;;;;;;;;6272985;22;20012;-66
2022/01/06 03:01:29;;;;;;;2.45;1.98;;;;;;;;;;6268686;22;20008;-66
2022/01/06 03:03:56;;;;;;;2.00;1.45;;;;;;;;;;6272812;22;20540;-66
2022/01/06 03:06:22;;;;;;;5.22;2.03;;;;;;;;;;6271762;22;20031;-66
2022/01/06 03:08:48;;;;;;;3.08;1.70;;;;;;;;;;6273342;22;20011;-64
2022/01/06 03:11:14;;;;;;;2.92;1.60;;;;;;;;;;6271832;22;20437;-67
2022/01/06 03:13:40;;;;;;;1.73;1.42;;;;;;;;;;6277132;22;20057;-66
2022/01/06 03:16:06;;;;;;;3.03;1.67;;;;;;;;;;6272165;22;20398;-66
2022/01/06 03:18:32;;;;;;;2.00;1.80;;;;;;;;;;6272595;22;20011;-65
2022/01/06 03:20:58;;;;;;;2.63;1.67;;;;;;;;;;6272888;22;20004;-65
2022/01/06 03:23:24;;;;;;;3.83;1.85;;;;;;;;;;6272955;22;20007;-66
2022/01/06 03:25:50;;;;;;;1.65;1.55;;;;;;;;;;6272194;22;20043;-66
2022/01/06 03:28:16;;;;;;;3.28;1.50;;;;;;;;;;6273135;22;20004;-67
2022/01/06 03:30:42;;;;;;;2.53;1.50;;;;;;;;;;6273604;22;20004;-66
2022/01/06 03:33:08;;;;;;;4.82;1.42;;;;;;;;;;6273621;22;20066;-64
2022/01/06 03:35:34;;;;;;;1.77;1.52;;;;;;;;;;6271521;22;20000;-66
2022/01/06 03:38:01;;;;;;;2.17;1.40;;;;;;;;;;6274080;22;20334;-66
2022/01/06 03:40:27;;;;;;;5.30;1.80;;;;;;;;;;6271208;22;20212;-66
2022/01/06 03:42:53;;;;;;;4.82;2.17;;;;;;;;;;6272240;22;20033;-66
2022/01/06 03:45:19;;;;;;;3.10;1.65;;;;;;;;;;6270495;22;20030;-66
2022/01/06 03:47:46;;;;;;;4.28;1.48;;;;;;;;;;6276790;22;20007;-65
2022/01/06 03:50:14;;;;;;;2.83;2.33;;;;;;;;;;6272241;22;20003;-66
2022/01/06 03:52:40;;;;;;;3.35;2.17;;;;;;;;;;6274413;22;20000;-65
2022/01/06 03:55:07;;;;;;;1.88;1.55;;;;;;;;;;6271893;22;20000;-64
2022/01/06 03:57:34;;;;;;;3.85;2.00;;;;;;;;;;6271707;22;20007;-66
2022/01/06 04:00:01;;;;;;;5.25;1.80;;;;;;;;;;6272193;22;20007;-67
2022/01/06 04:02:27;;;;;;;1.60;1.50;;;;;;;;;;6275805;22;20012;-64
2022/01/06 04:04:53;;;;;;;5.45;1.60;;;;;;;;;;6273288;22;20096;-66
2022/01/06 04:07:19;;;;;;;3.22;1.60;;;;;;;;;;6272606;22;19999;-67
2022/01/06 04:09:45;;;;;;;5.18;2.08;;;;;;;;;;6272903;22;20329;-66
2022/01/06 04:12:11;;;;;;;4.85;1.75;;;;;;;;;;6272831;22;20000;-67
2022/01/06 04:14:38;;;;;;;3.63;2.17;;;;;;;;;;6273509;22;20074;-66
2022/01/06 04:17:07;;;;;;;2.22;1.83;;;;;;;;;;6273100;22;20004;-66
2022/01/06 04:19:34;;;;;;;3.05;1.98;;;;;;;;;;6270621;22;20004;-66
2022/01/06 04:22:00;;;;;;;2.45;1.67;;;;;;;;;;6273173;22;20011;-66
2022/01/06 04:24:26;;;;;;;4.72;1.95;;;;;;;;;;6271332;22;20038;-66
2022/01/06 04:26:52;;;;;;;1.98;1.67;;;;;;;;;;6269613;22;20015;-66
2022/01/06 04:29:18;;;;;;;6.65;1.70;;;;;;;;;;6272062;22;20075;-63
2022/01/06 04:31:44;;;;;;;1.70;1.60;;;;;;;;;;6271553;22;20004;-66
2022/01/06 04:34:10;;;;;;;3.35;1.67;;;;;;;;;;6272062;22;20075;-63
2022/01/06 04:36:38;;;;;;;6.80;1.80;;;;;;;;;;6270588;22;20003;-66
2022/01/06 04:39:04;;;;;;;8.07;2.15;;;;;;;;;;6271427;22;20422;-66
2022/01/06 04:41:30;;;;;;;5.07;1.80;;;;;;;;;;6270965;22;20000;-66
2022/01/06 04:43:56;;;;;;;6.90;3.10;;;;;;;;;;6271668;22;20043;-66
2022/01/06 04:46:22;;;;;;;4.68;1.77;;;;;;;;;;6269150;22;20852;-65
2022/01/06 04:48:48;;;;;;;3.88;1.50;;;;;;;;;;6273646;22;20101;-66
2022/01/06 04:51:14;;;;;;;2.35;1.85;;;;;;;;;;6270735;22;20034;-66
2022/01/06 04:53:40;;;;;;;5.53;1.80;;;;;;;;;;6270998;22;20003;-66
2022/01/06 04:56:06;;;;;;;4.80;1.80;;;;;;;;;;6268517;22;20010;-65
2022/01/06 04:58:33;;;;;;;2.70;1.83;;;;;;;;;;6271437;22;20007;-66
2022/01/06 05:01:01;;;;;;;5.47;1.73;;;;;;;;;;6273927;22;19999;-67
2022/01/06 05:03:28;;;;;;;3.22;1.60;;;;;;;;;;6273244;22;20029;-65
2022/01/06 05:05:54;;;;;;;4.60;1.80;;;;;;;;;;6270934;22;19996;-65
2022/01/06 05:08:20;;;;;;;7.45;1.92;;;;;;;;;;6269218;22;20157;-64
2022/01/06 05:10:46;;;;;;;8.90;2.15;;;;;;;;;;6270702;22;20007;-65
2022/01/06 05:13:12;;;;;;;6.00;2.15;;;;;;;;;;6272705;22;20004;-65
2022/01/06 05:15:38;;;;;;;6.55;1.90;;;;;;;;;;6271337;22;20000;-66
2022/01/06 05:18:04;;;;;;;4.20;1.65;;;;;;;;;;6272231;22;20441;-66
2022/01/06 05:20:31;;;;;;;5.82;1.75;;;;;;;;;;6271944;22;20008;-61
2022/01/06 05:22:58;;;;;;;4.25;1.98;;;;;;;;;;6272676;22;20033;-63
2022/01/06 05:25:29;;;;;;;2.67;1.65;;;;;;;;;;6273526;22;20126;-66
2022/01/06 05:27:55;;;;;;;1.80;1.70;;;;;;;;;;6272116;22;20034;-66
2022/01/06 05:30:22;;;;;;;6.93;2.60;;;;;;;;;;6271191;22;19996;-65
2022/01/06 05:32:48;;;;;;;2.75;1.40;;;;;;;;;;6268879;22;20004;-63
2022/01/06 05:35:14;;;;;;;4.57;1.80;;;;;;;;;;6271935;22;19996;-65
2022/01/06 05:37:40;;;;;;;4.10;2.72;;;;;;;;;;6271369;22;20022;-66
2022/01/06 05:40:06;;;;;;;3.65;1.83;;;;;;;;;;6271564;22;20065;-67
2022/01/06 05:42:32;;;;;;;2.10;1.52;;;;;;;;;;6271718;22;20827;-66
2022/01/06 05:44:58;;;;;;;3.10;1.95;;;;;;;;;;6270788;22;20078;-66
2022/01/06 05:47:25;;;;;;;1.98;1.38;;;;;;;;;;6272106;22;20067;-66
2022/01/06 05:49:51;;;;;;;3.15;1.55;;;;;;;;;;6272393;22;20008;-65
2022/01/06 05:52:17;;;;;;;3.85;1.75;;;;;;;;;;6273527;22;20031;-66
2022/01/06 05:54:44;;;;;;;1.88;1.17;;;;;;;;;;6274109;22;20004;-66
2022/01/06 05:57:10;;;;;;;5.18;1.60;;;;;;;;;;6275260;22;20086;-66
2022/01/06 05:59:36;;;;;;;3.28;2.00;;;;;;;;;;6274216;22;20038;-66
2022/01/06 06:02:02;;;;;;;5.88;1.80;;;;;;;;;;6273333;22;20007;-65
2022/01/06 06:04:28;;;;;;;3.13;1.73;;;;;;;;;;6273286;22;20008;-66
2022/01/06 06:06:55;;;;;;;6.60;2.00;;;;;;;;;;6275486;22;20000;-63
2022/01/06 06:09:24;;;;;;;4.32;1.73;;;;;;;;;;6274405;22;19999;-66
2022/01/06 06:11:50;;;;;;;6.60;2.20;;;;;;;;;;6273957;22;20019;-67
2022/01/06 06:14:16;;;;;;;6.15;1.90;;;;;;;;;;6272505;22;20003;-66
2022/01/06 06:16:42;;;;;;;10.32;2.78;;;;;;;;;;6274096;22;20330;-67
2022/01/06 06:19:08;;;;;;;8.05;2.10;;;;;;;;;;6272889;22;20004;-66
2022/01/06 06:21:34;;;;;;;5.18;1.83;;;;;;;;;;6274530;22;20084;-66
2022/01/06 06:24:00;;;;;;;3.67;1.90;;;;;;;;;;6278743;22;20453;-66
2022/01/06 06:26:26;;;;;;;4.80;1.80;;;;;;;;;;6273893;22;20085;-66
2022/01/06 06:28:52;;;;;;;6.05;2.70;;;;;;;;;;6272854;22;20004;-66
2022/01/06 06:31:19;;;;;;;5.20;1.90;;;;;;;;;;6274488;22;20050;-66
2022/01/06 06:33:47;;;;;;;6.72;1.67;;;;;;;;;;6272083;22;20495;-66
2022/01/06 06:36:13;;;;;;;6.75;2.05;;;;;;;;;;6273991;22;20003;-67
2022/01/06 06:38:39;;;;;;;12.00;3.47;;;;;;;;;;6272996;22;20334;-66
2022/01/06 06:41:05;;;;;;;6.53;2.40;;;;;;;;;;6273422;22;20018;-67
2022/01/06 06:43:31;;;;;;;3.63;1.73;;;;;;;;;;6271259;22;20000;-69
2022/01/06 06:45:57;;;;;;;3.28;2.05;;;;;;;;;;6273366;22;20000;-68
2022/01/06 06:48:25;;;;;;;7.25;2.22;;;;;;;;;;6273290;22;20011;-66
2022/01/06 06:50:51;;;;;;;4.40;2.00;;;;;;;;;;6272786;22;20042;-64
2022/01/06 06:53:17;;;;;;;1.95;1.50;;;;;;;;;;6273643;22;20099;-66
2022/01/06 06:55:44;;;;;;;5.93;2.90;;;;;;;;;;6272147;22;20031;-67
2022/01/06 06:58:10;;;;;;;6.57;1.90;;;;;;;;;;6274011;22;20011;-65
2022/01/06 07:00:36;;;;;;;10.38;2.75;;;;;;;;;;6274971;22;20003;-67
2022/01/06 07:03:02;;;;;;;4.43;2.08;;;;;;;;;;6272225;22;20015;-67
2022/01/06 07:05:29;;;;;;;4.45;1.80;;;;;;;;;;6273060;22;20018;-67
2022/01/06 07:07:55;;;;;;;9.30;2.55;;;;;;;;;;6273096;22;20000;-67
2022/01/06 07:10:22;;;;;;;6.00;2.33;;;;;;;;;;6278898;22;20067;-66
2022/01/06 07:12:48;;;;;;;5.43;1.83;;;;;;;;;;6276142;22;20000;-68
2022/01/06 07:15:15;;;;;;;3.50;1.95;;;;;;;;;;6272685;22;20003;-64
2022/01/06 07:17:41;;;;;;;5.10;1.95;;;;;;;;;;6271506;22;20004;-65
2022/01/06 07:20:08;;;;;;;4.32;1.90;;;;;;;;;;6272440;22;20011;-64
2022/01/06 07:22:34;;;;;;;7.50;2.60;;;;;;;;;;6272827;22;20437;-67
2022/01/06 07:25:01;;;;;;;5.78;1.92;;;;;;;;;;6272721;22;20088;-67
2022/01/06 07:27:27;;;;;;;4.47;2.15;;;;;;;;;;6272778;22;20438;-67
2022/01/06 07:29:53;;;;;;;5.15;1.92;;;;;;;;;;6272229;22;20008;-66
2022/01/06 07:32:19;;;;;;;8.13;2.58;;;;;;;;;;6272978;22;20004;-67
2022/01/06 07:34:45;;;;;;;6.68;1.90;;;;;;;;;;6276952;22;20010;-65
2022/01/06 07:37:12;;;;;;;5.65;2.08;;;;;;;;;;6272313;22;20387;-67
2022/01/06 07:39:38;;;;;;;6.47;2.40;;;;;;;;;;6272923;22;20033;-67
2022/01/06 07:42:05;;;;;;;3.63;2.45;;;;;;;;;;6272244;22;20434;-67
2022/01/06 07:44:31;;;;;;;4.35;2.38;;;;;;;;;;6272003;22;20007;-67
2022/01/06 07:46:59;;;;;;;6.43;2.78;;;;;;;;;;6274353;22;20023;-65
2022/01/06 07:49:25;;;;;;;3.75;2.10;;;;;;;;;;6271211;22;20308;-67
2022/01/06 07:51:53;;;;;;;5.25;2.30;;;;;;;;;;6276010;22;20011;-65
2022/01/06 07:54:20;;;;;;;5.68;2.30;;;;;;;;;;6273041;22;20006;-67
2022/01/06 07:56:46;;;;;;;7.35;2.00;;;;;;;;;;6272726;22;20003;-62
2022/01/06 07:59:12;;;;;;;8.65;2.28;;;;;;;;;;6273532;22;20082;-64
2022/01/06 08:01:38;;;;;;;2.45;1.70;;;;;;;;;;6271826;22;20015;-67
2022/01/06 08:04:04;;;;;;;7.03;2.20;;;;;;;;;;6272772;22;20053;-68
2022/01/06 08:06:30;;;;;;;6.85;2.28;;;;;;;;;;6269815;22;20014;-67
2022/01/06 08:08:57;;;;;;;4.45;2.40;;;;;;;;;;6273103;22;20010;-67
2022/01/06 08:11:24;;;;;;;8.63;2.28;;;;;;;;;;6270849;22;20075;-66
2022/01/06 08:13:50;;;;;;;7.47;2.00;;;;;;;;;;6270990;22;20435;-66
2022/01/06 08:16:16;;;;;;;11.45;3.00;;;;;;;;;;6272683;22;20007;-64
2022/01/06 08:18:42;;;;;;;3.53;1.90;;;;;;;;;;6270243;22;20086;-64
2022/01/06 08:21:08;;;;;;;4.00;2.65;;;;;;;;;;6272216;22;20330;-66
2022/01/06 08:23:34;;;;;;;8.95;1.70;;;;;;;;;;6271983;22;20093;-65
2022/01/06 08:26:01;;;;;;;5.63;2.50;;;;;;;;;;6278411;22;20453;-66
2022/01/06 08:28:27;;;;;;;2.95;1.73;;;;;;;;;;6272692;22;20418;-66
2022/01/06 08:30:53;;;;;;;5.07;1.85;;;;;;;;;;6272224;22;20010;-66
2022/01/06 08:33:19;;;;;;;3.80;1.85;;;;;;;;;;6272289;22;20080;-67
2022/01/06 08:35:45;;;;;;;3.10;1.50;;;;;;;;;;6272276;22;20008;-65
2022/01/06 08:38:11;;;;;;;6.45;2.00;;;;;;;;;;6272156;22;20004;-62
2022/01/06 08:40:37;;;;;;;5.07;2.30;;;;;;;;;;6274823;22;20022;-66
2022/01/06 08:43:03;;;;;;;4.90;1.85;;;;;;;;;;6272048;22;20011;-68
2022/01/06 08:45:32;;;;;;;3.28;1.70;;;;;;;;;;6271450;22;20470;-66
2022/01/06 08:47:58;;;;;;;5.50;2.78;;;;;;;;;;6271588;22;20002;-67
2022/01/06 08:50:24;;;;;;;6.90;3.63;;;;;;;;;;6271200;22;20004;-66
2022/01/06 08:52:51;;;;;;;5.40;2.50;;;;;;;;;;6274925;22;20055;-67
2022/01/06 08:55:17;;;;;;;2.88;1.98;;;;;;;;;;6275667;22;20003;-66
2022/01/06 08:57:43;;;;;;;4.68;1.55;;;;;;;;;;6273121;22;20031;-65
2022/01/06 09:00:10;;;;;;;13.68;2.50;;;;;;;;;;6271058;22;20422;-67
2022/01/06 09:02:36;;;;;;;5.32;2.10;;;;;;;;;;6273037;22;20010;-68
2022/01/06 09:05:05;;;;;;;8.88;2.58;;;;;;;;;;6272292;22;20011;-64
2022/01/06 09:07:32;;;;;;;6.10;1.98;;;;;;;;;;6272701;22;20000;-67
2022/01/06 09:09:58;;;;;;;6.18;2.10;;;;;;;;;;6271429;22;19996;-67
2022/01/06 09:12:24;;;;;;;7.93;2.20;;;;;;;;;;6272611;22;19996;-67
2022/01/06 09:14:50;;;;;;;3.63;2.00;;;;;;;;;;6270950;22;20035;-67
2022/01/06 09:17:17;;;;;;;5.55;3.03;;;;;;;;;;6272594;22;20450;-65
2022/01/06 09:19:43;;;;;;;7.28;2.13;;;;;;;;;;6270080;22;20018;-66
2022/01/06 09:22:09;;;;;;;6.57;2.17;;;;;;;;;;6272460;22;20069;-66
2022/01/06 09:24:36;;;;;;;6.60;1.77;;;;;;;;;;6271466;22;20014;-66
2022/01/06 09:27:02;;;;;;;6.10;2.35;;;;;;;;;;6270782;22;20011;-62
2022/01/06 09:29:28;;;;;;;5.07;1.85;;;;;;;;;;6271580;22;20431;-65
2022/01/06 09:31:55;;;;;;;5.43;1.88;;;;;;;;;;6269854;22;20101;-66
2022/01/06 09:34:21;;;;;;;4.65;1.88;;;;;;;;;;6271467;22;20008;-66
2022/01/06 09:36:47;;;;;;;4.40;2.08;;;;;;;;;;6269797;22;20042;-66
2022/01/06 09:39:13;;;;;;;2.85;1.70;;;;;;;;;;6273444;22;20085;-67
2022/01/06 09:41:39;;;;;;;6.72;1.98;;;;;;;;;;6269726;22;20012;-66
2022/01/06 09:44:06;;;;;;;2.15;1.60;;;;;;;;;;6271549;22;20016;-66
2022/01/06 09:46:33;;;;;;;3.65;1.95;;;;;;;;;;6270187;22;20008;-63
2022/01/06 09:49:00;;;;;;;4.20;1.88;;;;;;;;;;6271798;22;20014;-66
2022/01/06 09:51:30;;;;;;;2.40;1.73;;;;;;;;;;6271359;22;19995;-67
2022/01/06 09:53:58;;;;;;;2.42;1.40;;;;;;;;;;6271355;22;20058;-66
2022/01/06 09:56:26;;;;;;;5.03;1.80;;;;;;;;;;6270426;22;20010;-66
2022/01/06 09:58:52;;;;;;;4.65;1.80;;;;;;;;;;6271041;22;20026;-68
2022/01/06 10:01:19;;;;;;;4.85;1.70;;;;;;;;;;6271376;22;20315;-67
2022/01/06 10:03:48;;;;;;;1.60;1.50;;;;;;;;;;6272524;22;20010;-66
2022/01/06 10:06:21;;;;;;;4.03;1.73;;;;;;;;;;6271236;22;20000;-65
2022/01/06 10:08:51;;;;;;;1.70;1.33;;;;;;;;;;6271620;22;20027;-66
2022/01/06 10:11:19;;;;;;;2.95;1.60;;;;;;;;;;6271186;22;19996;-64
2022/01/06 10:13:53;;;;;;;1.58;1.30;;;;;;;;;;6269163;22;20012;-65
2022/01/06 10:16:20;;;;;;;1.63;1.40;;;;;;;;;;6270262;22;20053;-68
2022/01/06 10:18:56;;;;;;;2.08;1.58;;;;;;;;;;6270019;22;20533;-66
2022/01/06 10:21:22;;;;;;;6.65;2.10;;;;;;;;;;6275226;22;20010;-66
2022/01/06 10:24:04;;;;;;;4.07;1.55;;;;;;;;;;6274465;22;20004;-66
2022/01/06 10:26:30;;;;;;;2.15;1.48;;;;;;;;;;6269584;22;20057;-65
2022/01/06 10:28:57;;;;;;;3.17;1.45;;;;;;;;;;6272698;22;20000;-67
2022/01/06 10:31:24;;;;;;;1.90;1.70;;;;;;;;;;6271545;22;20004;-67
2022/01/06 10:33:51;;;;;;;1.83;1.63;;;;;;;;;;6275380;22;20007;-65
2022/01/06 10:36:17;;;;;;;5.25;1.90;;;;;;;;;;6273218;22;20057;-66
2022/01/06 10:38:52;;;;;;;2.20;1.38;;;;;;;;;;6273944;22;20010;-65
2022/01/06 10:41:19;;;;;;;2.88;1.52;;;;;;;;;;6248669;22;20433;-65
2022/01/06 10:43:52;;;;;;;6.65;2.25;;;;;;;;;;6275435;22;20008;-67
2022/01/06 10:46:30;;;;;;;5.78;1.85;;;;;;;;;;6279896;22;20057;-66
2022/01/06 10:48:58;;;;;;;3.00;2.03;;;;;;;;;;6278930;22;19996;-68
2022/01/06 10:51:41;;;;;;;4.65;2.00;;;;;;;;;;6272775;22;20427;-66
2022/01/06 10:54:15;;;;;;;5.10;2.03;;;;;;;;;;6273075;22;20008;-65
2022/01/06 10:56:41;;;;;;;6.03;2.08;;;;;;;;;;6273013;22;20434;-66
2022/01/06 10:59:07;;;;;;;4.57;2.10;;;;;;;;;;6272935;22;20000;-65
2022/01/06 11:01:34;;;;;;;6.15;2.17;;;;;;;;;;6274606;22;20392;-65
2022/01/06 11:04:01;;;;;;;7.75;2.13;;;;;;;;;;6273208;22;20448;-66
2022/01/06 11:06:27;;;;;;;6.93;2.10;;;;;;;;;;6273425;22;20008;-66
2022/01/06 11:08:53;;;;;;;9.52;2.13;;;;;;;;;;6272105;22;20095;-67
2022/01/06 11:11:32;;;;;;;11.05;2.30;;;;;;;;;;6273458;22;20061;-66
2022/01/06 11:13:59;;;;;;;6.53;2.30;;;;;;;;;;6272775;22;20000;-66
2022/01/06 11:16:25;;;;;;;6.93;2.17;;;;;;;;;;6273437;22;20004;-65
2022/01/06 11:18:53;;;;;;;7.25;2.50;;;;;;;;;;6273122;22;20011;-65
2022/01/06 11:21:22;;;;;;;11.48;2.65;;;;;;;;;;6272398;22;20004;-64
2022/01/06 11:23:48;;;;;;;6.22;2.60;;;;;;;;;;6272330;22;20039;-63
2022/01/06 11:26:19;;;;;;;9.63;2.58;;;;;;;;;;6273820;22;20011;-66
2022/01/06 11:28:54;;;;;;;7.47;2.65;;;;;;;;;;6272209;22;20000;-67
2022/01/06 11:31:24;;;;;;;5.50;2.53;;;;;;;;;;6274047;22;20091;-66
2022/01/06 11:33:51;;;;;;;6.88;2.95;;;;;;;;;;6274170;22;20118;-66
2022/01/06 11:36:22;;;;;;;6.38;2.20;;;;;;;;;;6271634;22;20118;-67
2022/01/06 11:38:49;;;;;;;7.85;3.17;;;;;;;;;;6274090;22;20010;-65
2022/01/06 11:41:16;;;;;;;6.28;3.38;;;;;;;;;;6273398;22;20082;-69
2022/01/06 11:43:43;;;;;;;6.70;2.50;;;;;;;;;;6271157;22;20010;-65
2022/01/06 11:46:10;;;;;;;6.20;2.40;;;;;;;;;;6272228;22;20070;-66
2022/01/06 11:48:50;;;;;;;5.53;2.22;;;;;;;;;;6272750;22;20626;-69
2022/01/06 11:51:26;;;;;;;10.32;2.40;;;;;;;;;;6271239;22;20000;-66
2022/01/06 11:53:53;;;;;;;5.88;2.35;;;;;;;;;;6274098;22;20004;-66
2022/01/06 11:56:21;;;;;;;8.95;2.47;;;;;;;;;;6271715;22;20000;-67
2022/01/06 11:58:57;;;;;;;8.00;3.00;;;;;;;;;;6273165;22;20070;-63
2022/01/06 12:01:23;;;;;;;7.32;2.28;;;;;;;;;;6271255;22;20036;-66
2022/01/06 12:03:50;;;;;;;6.68;2.45;;;;;;;;;;6273026;22;19999;-67
2022/01/06 12:06:25;;;;;;;8.30;2.97;;;;;;;;;;6272058;22;20026;-66
2022/01/06 12:08:51;;;;;;;9.07;2.75;;;;;;;;;;6272394;22;20373;-66
2022/01/06 12:11:23;;;;;;;9.48;2.45;;;;;;;;;;6271497;22;20004;-65
2022/01/06 12:13:50;;;;;;;9.02;2.78;;;;;;;;;;6273354;22;20438;-66
2022/01/06 12:16:27;;;;;;;7.88;2.70;;;;;;;;;;6272772;22;20339;-67
2022/01/06 12:18:53;;;;;;;5.53;2.75;;;;;;;;;;6271335;22;20328;-69
2022/01/06 12:21:19;;;;;;;12.18;3.60;;;;;;;;;;6272221;22;20315;-66
2022/01/06 12:23:46;;;;;;;8.05;2.90;;;;;;;;;;6271974;22;20003;-67
2022/01/06 12:26:13;;;;;;;7.03;3.58;;;;;;;;;;6273755;22;20027;-67
2022/01/06 12:28:49;;;;;;;10.77;3.60;;;;;;;;;;6273987;22;20003;-63
2022/01/06 12:31:25;;;;;;;7.95;4.25;;;;;;;;;;6269759;22;20050;-66
2022/01/06 12:33:58;;;;;;;10.93;3.15;;;;;;;;;;6270612;22;20002;-66
2022/01/06 12:36:24;;;;;;;11.50;3.50;;;;;;;;;;6271840;22;20327;-66
2022/01/06 12:38:50;;;;;;;14.13;3.08;;;;;;;;;;6272307;22;19995;-66
2022/01/06 12:41:17;;;;;;;12.57;3.20;;;;;;;;;;6271323;22;20526;-65
2022/01/06 12:43:43;;;;;;;8.85;3.05;;;;;;;;;;6270389;22;20003;-67
2022/01/06 12:46:11;;;;;;;12.90;4.72;;;;;;;;;;6271837;22;20003;-67
2022/01/06 12:48:50;;;;;;;14.40;3.75;;;;;;;;;;6271547;22;20007;-67
2022/01/06 12:51:26;;;;;;;11.65;3.60;;;;;;;;;;6270020;22;19999;-65
2022/01/06 12:54:01;;;;;;;10.00;3.17;;;;;;;;;;6272148;22;20004;-66
2022/01/06 12:56:32;;;;;;;6.63;3.47;;;;;;;;;;6276324;22;20512;-66
2022/01/06 12:59:03;;;;;;;9.13;2.85;;;;;;;;;;6272032;22;20003;-66
2022/01/06 13:01:30;;;;;;;7.18;2.80;;;;;;;;;;6269611;22;20046;-67
2022/01/06 13:03:57;;;;;;;8.23;3.85;;;;;;;;;;6270663;22;20078;-66
2022/01/06 13:06:23;;;;;;;7.88;2.75;;;;;;;;;;6271877;22;20004;-67
2022/01/06 13:08:51;;;;;;;9.00;3.17;;;;;;;;;;6273252;22;20011;-68
2022/01/06 13:11:19;;;;;;;4.00;2.47;;;;;;;;;;6271473;22;20002;-65
2022/01/06 13:14:07;;;;;;;9.30;3.15;;;;;;;;;;6272486;22;20004;-66
2022/01/06 13:16:35;;;;;;;7.65;3.38;;;;;;;;;;6272183;22;20011;-67
2022/01/06 13:19:14;;;;;;;12.00;4.75;;;;;;;;;;6272711;22;20010;-67
2022/01/06 13:21:50;;;;;;;10.30;4.20;;;;;;;;;;6274666;22;20003;-64
2022/01/06 13:24:18;;;;;;;7.05;3.53;;;;;;;;;;6271514;22;20446;-67
2022/01/06 13:26:55;;;;;;;14.27;5.13;;;;;;;;;;6267350;22;20026;-64
2022/01/06 13:29:27;;;;;;;12.45;3.97;;;;;;;;;;6270001;22;20111;-66
2022/01/06 13:31:57;;;;;;;11.35;3.28;;;;;;;;;;6269500;22;20049;-66
2022/01/06 13:34:23;;;;;;;8.63;2.95;;;;;;;;;;6270687;22;20473;-65
2022/01/06 13:36:49;;;;;;;8.07;3.38;;;;;;;;;;6272546;22;20071;-67
2022/01/06 13:39:15;;;;;;;7.90;3.45;;;;;;;;;;6273901;22;20019;-66
2022/01/06 13:41:46;;;;;;;13.68;4.65;;;;;;;;;;6269978;22;20461;-65
2022/01/06 13:44:13;;;;;;;9.77;3.25;;;;;;;;;;6270648;22;20052;-68
2022/01/06 13:46:52;;;;;;;8.05;2.78;;;;;;;;;;6270264;22;19999;-65
2022/01/06 13:52:16;;;;;;;6.00;2.55;;;;;;;;;;6272393;22;20042;-63
2022/01/06 13:54:42;;;;;;;8.95;3.53;;;;;;;;;;6275070;22;19999;-64
2022/01/06 13:57:09;;;;;;;7.15;3.20;;;;;;;;;;6269850;22;20008;-64
2022/01/06 13:59:35;;;;;;;6.93;3.00;;;;;;;;;;6274860;22;20368;-65
2022/01/06 14:02:02;;;;;;;9.70;3.03;;;;;;;;;;6268982;22;20091;-67
2022/01/06 14:04:28;;;;;;;11.77;3.70;;;;;;;;;;6268778;22;20000;-66
2022/01/06 14:06:54;;;;;;;11.65;3.03;;;;;;;;;;6270213;22;20000;-64
2022/01/06 14:09:20;;;;;;;7.03;3.10;;;;;;;;;;6270761;22;20327;-66
2022/01/06 14:11:47;;;;;;;9.00;3.55;;;;;;;;;;6271427;22;20000;-67
2022/01/06 14:14:13;;;;;;;9.52;3.83;;;;;;;;;;6277580;22;20011;-66
2022/01/06 14:16:40;;;;;;;11.02;3.35;;;;;;;;;;6274334;22;20407;-66
2022/01/06 14:19:06;;;;;;;8.38;2.65;;;;;;;;;;6271154;22;20037;-65
2022/01/06 14:21:32;;;;;;;3.75;2.45;;;;;;;;;;6271175;22;20008;-67
2022/01/06 14:23:58;;;;;;;10.32;4.47;;;;;;;;;;6271555;22;20495;-67
2022/01/06 14:26:24;;;;;;;6.53;2.60;;;;;;;;;;6222232;22;1179968;-66
2022/01/06 14:28:50;;;;;;;10.05;4.80;;;;;;;;;;6272539;22;20004;-66
2022/01/06 14:31:16;;;;;;;11.80;4.57;;;;;;;;;;6273029;22;20299;-65
2022/01/06 14:33:43;;;;;;;8.07;2.38;;;;;;;;;;6271549;22;20012;-66
2022/01/06 14:36:09;;;;;;;8.52;3.70;;;;;;;;;;6275714;22;20339;-66
2022/01/06 14:38:41;;;;;;;4.22;2.28;;;;;;;;;;6272764;22;20010;-65
2022/01/06 14:41:07;;;;;;;16.23;6.80;;;;;;;;;;6271980;22;20146;-69
2022/01/06 14:43:38;;;;;;;6.72;2.63;;;;;;;;;;6278780;22;20007;-63
2022/01/06 14:46:05;;;;;;;4.85;2.50;;;;;;;;;;6276668;22;19992;-67
2022/01/06 14:48:32;;;;;;;11.77;5.28;;;;;;;;;;6272530;22;20007;-64
2022/01/06 14:50:58;;;;;;;8.38;2.58;;;;;;;;;;6273544;22;20000;-65
2022/01/06 14:53:24;;;;;;;7.07;3.08;;;;;;;;;;6272905;22;20007;-67